createdAt,value
2022-09-06T00:00:15.936Z,992.97
2022-09-06T00:01:15.916Z,992.97
2022-09-06T00:02:15.967Z,992.95
2022-09-06T00:03:15.925Z,992.97
2022-09-06T00:04:15.989Z,992.98
2022-09-06T00:05:15.879Z,992.97
2022-09-06T00:06:15.887Z,992.97
2022-09-06T00:07:15.866Z,993.02
2022-09-06T00:08:15.854Z,992.95
2022-09-06T00:09:16.290Z,992.91
2022-09-06T00:10:15.825Z,992.90
2022-09-06T00:11:15.834Z,992.93
2022-09-06T00:12:15.826Z,992.90
2022-09-06T00:13:15.816Z,992.93
2022-09-06T00:14:15.787Z,992.91
2022-09-06T00:15:16.447Z,993.01
2022-09-06T00:16:15.830Z,992.96
2022-09-06T00:17:15.768Z,992.96
2022-09-06T00:18:16.685Z,992.98
2022-09-06T00:19:15.738Z,992.96
2022-09-06T00:20:15.743Z,992.95
2022-09-06T00:21:15.735Z,992.91
2022-09-06T00:22:15.705Z,992.95
2022-09-06T00:23:15.706Z,992.94
2022-09-06T00:24:15.687Z,992.93
2022-09-06T00:25:15.719Z,992.94
2022-09-06T00:26:15.709Z,992.93
2022-09-06T00:27:15.729Z,992.96
2022-09-06T00:28:15.649Z,992.99
2022-09-06T00:29:15.652Z,992.97
2022-09-06T00:30:15.629Z,993.01
2022-09-06T00:31:17.463Z,993.07
2022-09-06T00:32:15.606Z,993.06
2022-09-06T00:33:15.587Z,993.04
2022-09-06T00:34:15.626Z,993.05
2022-09-06T00:35:15.577Z,993.08
2022-09-06T00:36:15.577Z,993.09
2022-09-06T00:37:15.547Z,993.06
2022-09-06T00:38:15.560Z,993.03
2022-09-06T00:39:15.528Z,993.04
2022-09-06T00:40:15.519Z,993.11
2022-09-06T00:41:15.869Z,993.09
2022-09-06T00:42:15.500Z,993.07
2022-09-06T00:43:15.527Z,993.06
2022-09-06T00:44:15.480Z,993.07
2022-09-06T00:45:15.476Z,993.06
2022-09-06T00:46:15.542Z,993.07
2022-09-06T00:47:15.630Z,993.10
2022-09-06T00:48:15.437Z,993.08
2022-09-06T00:49:15.451Z,993.10
2022-09-06T00:50:15.418Z,993.10
2022-09-06T00:51:15.408Z,993.12
2022-09-06T00:52:15.388Z,993.10
2022-09-06T00:53:15.818Z,993.14
2022-09-06T00:54:15.388Z,993.14
2022-09-06T00:55:15.370Z,993.11
2022-09-06T00:56:15.450Z,993.08
2022-09-06T00:57:15.355Z,993.14
2022-09-06T00:58:16.000Z,993.11
2022-09-06T00:59:15.361Z,993.10
2022-09-06T01:00:15.331Z,993.13
2022-09-06T01:01:15.429Z,993.15
2022-09-06T01:02:15.438Z,993.12
2022-09-06T01:03:15.300Z,993.11
2022-09-06T01:04:15.269Z,993.08
2022-09-06T01:05:15.261Z,993.04
2022-09-06T01:06:15.241Z,992.98
2022-09-06T01:07:15.240Z,992.98
2022-09-06T01:08:16.909Z,992.91
2022-09-06T01:09:15.220Z,992.99
2022-09-06T01:10:15.199Z,992.97
2022-09-06T01:11:15.220Z,992.98
2022-09-06T01:12:15.202Z,992.94
2022-09-06T01:13:15.233Z,993.03
2022-09-06T01:14:15.173Z,993.01
2022-09-06T01:15:15.162Z,993.04
2022-09-06T01:16:15.188Z,993.02
2022-09-06T01:17:15.131Z,993.00
2022-09-06T01:18:15.120Z,993.08
2022-09-06T01:19:15.111Z,993.08
2022-09-06T01:20:15.113Z,993.02
2022-09-06T01:21:15.113Z,993.09
2022-09-06T01:22:15.133Z,993.01
2022-09-06T01:23:15.073Z,993.01
2022-09-06T01:24:15.072Z,992.99
2022-09-06T01:25:15.067Z,992.96
2022-09-06T01:26:15.113Z,992.94
2022-09-06T01:27:15.033Z,992.90
2022-09-06T01:28:15.342Z,992.90
2022-09-06T01:29:15.012Z,992.89
2022-09-06T01:30:14.991Z,992.89
2022-09-06T01:31:15.069Z,992.87
2022-09-06T01:32:14.972Z,992.92
2022-09-06T01:33:14.984Z,992.93
2022-09-06T01:34:14.974Z,992.95
2022-09-06T01:35:14.953Z,992.96
2022-09-06T01:36:14.953Z,992.92
2022-09-06T01:37:14.934Z,992.96
2022-09-06T01:38:14.926Z,992.92
2022-09-06T01:39:14.935Z,992.96
2022-09-06T01:40:14.904Z,992.92
2022-09-06T01:41:14.895Z,992.91
2022-09-06T01:42:14.894Z,992.92
2022-09-06T01:43:14.893Z,992.96
2022-09-06T01:44:14.873Z,992.98
2022-09-06T01:45:14.863Z,993.03
2022-09-06T01:46:14.878Z,993.06
2022-09-06T01:47:14.845Z,993.05
2022-09-06T01:48:14.814Z,993.02
2022-09-06T01:49:14.804Z,993.05
2022-09-06T01:50:14.893Z,993.07
2022-09-06T01:51:14.794Z,993.07
2022-09-06T01:52:14.779Z,993.04
2022-09-06T01:53:14.785Z,993.05
2022-09-06T01:54:14.766Z,993.04
2022-09-06T01:55:14.756Z,993.02
2022-09-06T01:56:14.766Z,993.03
2022-09-06T01:57:14.727Z,993.06
2022-09-06T01:58:14.726Z,993.06
2022-09-06T01:59:14.718Z,993.10
2022-09-06T02:00:14.704Z,993.12
2022-09-06T02:01:14.738Z,993.11
2022-09-06T02:02:14.755Z,993.11
2022-09-06T02:03:14.664Z,993.13
2022-09-06T02:04:14.657Z,993.13
2022-09-06T02:05:14.676Z,993.08
2022-09-06T02:06:14.667Z,993.08
2022-09-06T02:07:14.637Z,993.05
2022-09-06T02:08:14.617Z,992.97
2022-09-06T02:09:14.648Z,992.97
2022-09-06T02:10:14.617Z,992.91
2022-09-06T02:11:14.602Z,992.92
2022-09-06T02:12:14.598Z,992.89
2022-09-06T02:13:14.608Z,992.92
2022-09-06T02:14:14.566Z,992.88
2022-09-06T02:15:17.766Z,992.84
2022-09-06T02:16:14.579Z,992.82
2022-09-06T02:17:14.526Z,992.84
2022-09-06T02:18:14.518Z,992.85
2022-09-06T02:19:14.498Z,992.87
2022-09-06T02:20:14.518Z,992.81
2022-09-06T02:21:14.498Z,992.85
2022-09-06T02:22:14.471Z,992.87
2022-09-06T02:23:14.478Z,992.83
2022-09-06T02:24:14.447Z,992.86
2022-09-06T02:25:14.447Z,992.84
2022-09-06T02:26:14.957Z,992.86
2022-09-06T02:27:14.435Z,992.80
2022-09-06T02:28:14.398Z,992.83
2022-09-06T02:29:14.419Z,992.83
2022-09-06T02:30:14.418Z,992.84
2022-09-06T02:31:14.424Z,992.86
2022-09-06T02:32:14.420Z,992.85
2022-09-06T02:33:14.360Z,992.86
2022-09-06T02:34:14.361Z,992.86
2022-09-06T02:35:14.350Z,992.80
2022-09-06T02:36:14.390Z,992.78
2022-09-06T02:37:14.332Z,992.80
2022-09-06T02:38:14.313Z,992.78
2022-09-06T02:39:14.300Z,992.74
2022-09-06T02:40:14.279Z,992.74
2022-09-06T02:41:14.298Z,992.75
2022-09-06T02:42:14.288Z,992.75
2022-09-06T02:43:14.269Z,992.75
2022-09-06T02:44:14.239Z,992.77
2022-09-06T02:45:14.236Z,992.78
2022-09-06T02:46:14.250Z,992.79
2022-09-06T02:47:14.259Z,992.79
2022-09-06T02:48:14.212Z,992.78
2022-09-06T02:49:14.199Z,992.76
2022-09-06T02:50:14.203Z,992.79
2022-09-06T02:51:14.182Z,992.73
2022-09-06T02:52:14.183Z,992.71
2022-09-06T02:53:14.171Z,992.70
2022-09-06T02:54:14.142Z,992.73
2022-09-06T02:55:14.143Z,992.72
2022-09-06T02:56:14.190Z,992.66
2022-09-06T02:57:14.117Z,992.66
2022-09-06T02:58:14.170Z,992.68
2022-09-06T02:59:14.091Z,992.65
2022-09-06T03:00:14.070Z,992.73
2022-09-06T03:01:14.111Z,992.70
2022-09-06T03:02:14.107Z,992.68
2022-09-06T03:03:14.710Z,992.68
2022-09-06T03:04:14.063Z,992.72
2022-09-06T03:05:14.033Z,992.71
2022-09-06T03:07:10.016Z,992.71
2022-09-06T03:08:10.007Z,992.72
2022-09-06T03:09:09.997Z,992.65
2022-09-06T03:10:09.988Z,992.65
2022-09-06T03:11:09.958Z,992.61
2022-09-06T03:12:09.972Z,992.58
2022-09-06T03:13:10.000Z,992.59
2022-09-06T03:14:10.618Z,992.62
2022-09-06T03:15:09.921Z,992.57
2022-09-06T03:16:10.057Z,992.59
2022-09-06T03:17:09.951Z,992.63
2022-09-06T03:18:09.887Z,992.65
2022-09-06T03:19:09.943Z,992.68
2022-09-06T03:20:09.875Z,992.71
2022-09-06T03:21:09.881Z,992.74
2022-09-06T03:22:09.886Z,992.75
2022-09-06T03:23:09.837Z,992.74
2022-09-06T03:24:09.834Z,992.74
2022-09-06T03:25:09.858Z,992.74
2022-09-06T03:26:09.819Z,992.68
2022-09-06T03:27:09.813Z,992.71
2022-09-06T03:28:09.790Z,992.72
2022-09-06T03:29:09.819Z,992.75
2022-09-06T03:30:09.796Z,992.72
2022-09-06T03:31:09.853Z,992.76
2022-09-06T03:32:09.759Z,992.76
2022-09-06T03:33:09.727Z,992.75
2022-09-06T03:34:11.255Z,992.74
2022-09-06T03:35:09.737Z,992.77
2022-09-06T03:36:09.707Z,992.75
2022-09-06T03:37:09.697Z,992.74
2022-09-06T03:38:09.696Z,992.75
2022-09-06T03:39:09.678Z,992.74
2022-09-06T03:40:09.752Z,992.70
2022-09-06T03:41:09.659Z,992.69
2022-09-06T03:42:09.651Z,992.67
2022-09-06T03:43:09.660Z,992.62
2022-09-06T03:44:09.640Z,992.59
2022-09-06T03:45:09.621Z,992.58
2022-09-06T03:46:09.942Z,992.56
2022-09-06T03:47:09.611Z,992.54
2022-09-06T03:48:09.602Z,992.50
2022-09-06T03:49:09.589Z,992.50
2022-09-06T03:50:09.570Z,992.47
2022-09-06T03:51:09.569Z,992.40
2022-09-06T03:52:09.587Z,992.36
2022-09-06T03:53:09.540Z,992.37
2022-09-06T03:54:09.530Z,992.34
2022-09-06T03:55:09.520Z,992.34
2022-09-06T03:56:09.520Z,992.38
2022-09-06T03:57:09.523Z,992.35
2022-09-06T03:58:09.487Z,992.38
2022-09-06T03:59:09.499Z,992.36
2022-09-06T04:00:09.469Z,992.34
2022-09-06T04:01:09.477Z,992.31
2022-09-06T04:02:09.469Z,992.30
2022-09-06T04:03:09.459Z,992.38
2022-09-06T04:04:09.424Z,992.31
2022-09-06T04:05:09.422Z,992.35
2022-09-06T04:06:09.415Z,992.36
2022-09-06T04:07:09.389Z,992.35
2022-09-06T04:08:09.411Z,992.37
2022-09-06T04:09:09.372Z,992.42
2022-09-06T04:10:10.033Z,992.44
2022-09-06T04:11:09.352Z,992.46
2022-09-06T04:12:09.351Z,992.44
2022-09-06T04:13:09.350Z,992.41
2022-09-06T04:14:09.340Z,992.43
2022-09-06T04:15:09.298Z,992.40
2022-09-06T04:16:09.361Z,992.37
2022-09-06T04:17:09.282Z,992.40
2022-09-06T04:18:09.514Z,992.40
2022-09-06T04:19:09.292Z,992.44
2022-09-06T04:20:09.262Z,992.44
2022-09-06T04:21:09.263Z,992.45
2022-09-06T04:22:09.243Z,992.43
2022-09-06T04:23:09.226Z,992.48
2022-09-06T04:24:09.232Z,992.51
2022-09-06T04:25:09.244Z,992.55
2022-09-06T04:26:09.202Z,992.59
2022-09-06T04:27:09.183Z,992.62
2022-09-06T04:28:09.193Z,992.60
2022-09-06T04:29:09.161Z,992.56
2022-09-06T04:30:09.165Z,992.49
2022-09-06T04:31:09.145Z,992.43
2022-09-06T04:32:09.166Z,992.37
2022-09-06T04:33:09.111Z,992.41
2022-09-06T04:34:09.120Z,992.37
2022-09-06T04:35:09.091Z,992.33
2022-09-06T04:36:09.111Z,992.39
2022-09-06T04:37:09.093Z,992.43
2022-09-06T04:38:09.082Z,992.50
2022-09-06T04:39:09.064Z,992.50
2022-09-06T04:40:09.136Z,992.47
2022-09-06T04:41:09.044Z,992.45
2022-09-06T04:42:09.057Z,992.37
2022-09-06T04:43:09.024Z,992.30
2022-09-06T04:44:09.013Z,992.22
2022-09-06T04:45:08.995Z,992.20
2022-09-06T04:46:09.045Z,992.27
2022-09-06T04:47:09.706Z,992.33
2022-09-06T04:48:08.972Z,992.43
2022-09-06T04:49:08.963Z,992.51
2022-09-06T04:50:08.972Z,992.45
2022-09-06T04:51:08.941Z,992.42
2022-09-06T04:52:08.944Z,992.38
2022-09-06T04:53:08.954Z,992.33
2022-09-06T04:54:08.926Z,992.30
2022-09-06T04:55:08.905Z,992.32
2022-09-06T04:56:08.895Z,992.41
2022-09-06T04:57:08.863Z,992.45
2022-09-06T04:58:08.805Z,992.47
2022-09-06T04:59:08.856Z,992.49
2022-09-06T05:00:08.795Z,992.41
2022-09-06T05:01:08.871Z,992.41
2022-09-06T05:02:08.930Z,992.36
2022-09-06T05:03:08.881Z,992.33
2022-09-06T05:04:08.765Z,992.34
2022-09-06T05:05:08.739Z,992.30
2022-09-06T05:06:08.753Z,992.33
2022-09-06T05:07:08.750Z,992.29
2022-09-06T05:08:08.715Z,992.30
2022-09-06T05:09:08.786Z,992.31
2022-09-06T05:10:08.674Z,992.37
2022-09-06T05:11:08.749Z,992.35
2022-09-06T05:12:08.664Z,992.37
2022-09-06T05:13:08.654Z,992.38
2022-09-06T05:14:08.644Z,992.33
2022-09-06T05:15:08.635Z,992.33
2022-09-06T05:16:08.704Z,992.29
2022-09-06T05:17:08.616Z,992.30
2022-09-06T05:18:11.799Z,992.32
2022-09-06T05:19:09.697Z,992.37
2022-09-06T05:20:08.597Z,992.36
2022-09-06T05:21:08.569Z,992.38
2022-09-06T05:22:08.567Z,992.38
2022-09-06T05:23:08.547Z,992.34
2022-09-06T05:24:08.548Z,992.33
2022-09-06T05:25:08.568Z,992.31
2022-09-06T05:26:08.539Z,992.37
2022-09-06T05:27:09.447Z,992.36
2022-09-06T05:28:08.506Z,992.35
2022-09-06T05:29:08.526Z,992.40
2022-09-06T05:30:08.479Z,992.42
2022-09-06T05:31:08.488Z,992.37
2022-09-06T05:32:08.557Z,992.33
2022-09-06T05:33:08.447Z,992.25
2022-09-06T05:34:08.477Z,992.18
2022-09-06T05:35:08.421Z,992.26
2022-09-06T05:36:09.420Z,992.30
2022-09-06T05:37:08.409Z,992.33
2022-09-06T05:38:08.420Z,992.26
2022-09-06T05:39:08.437Z,992.21
2022-09-06T05:40:08.461Z,992.20
2022-09-06T05:41:08.393Z,992.24
2022-09-06T05:42:09.035Z,992.26
2022-09-06T05:43:08.339Z,992.29
2022-09-06T05:44:08.337Z,992.27
2022-09-06T05:45:08.358Z,992.34
2022-09-06T05:46:08.473Z,992.30
2022-09-06T05:47:08.299Z,992.34
2022-09-06T05:48:08.287Z,992.29
2022-09-06T05:49:08.338Z,992.28
2022-09-06T05:50:08.322Z,992.31
2022-09-06T05:51:08.253Z,992.28
2022-09-06T05:52:08.254Z,992.37
2022-09-06T05:53:08.239Z,992.37
2022-09-06T05:54:08.252Z,992.36
2022-09-06T05:55:08.330Z,992.29
2022-09-06T05:56:08.212Z,992.25
2022-09-06T05:57:08.208Z,992.24
2022-09-06T05:58:08.224Z,992.28
2022-09-06T05:59:08.179Z,992.27
2022-09-06T06:00:08.188Z,992.27
2022-09-06T06:01:08.362Z,992.32
2022-09-06T06:02:08.283Z,992.29
2022-09-06T06:03:08.162Z,992.38
2022-09-06T06:04:08.143Z,992.36
2022-09-06T06:05:08.118Z,992.48
2022-09-06T06:06:08.143Z,992.47
2022-09-06T06:07:08.137Z,992.48
2022-09-06T06:08:08.118Z,992.50
2022-09-06T06:09:08.068Z,992.41
2022-09-06T06:10:08.079Z,992.42
2022-09-06T06:11:08.050Z,992.49
2022-09-06T06:12:08.078Z,992.51
2022-09-06T06:13:08.071Z,992.57
2022-09-06T06:14:08.081Z,992.58
2022-09-06T06:15:08.043Z,992.54
2022-09-06T06:16:08.083Z,992.64
2022-09-06T06:17:08.006Z,992.66
2022-09-06T06:18:08.009Z,992.65
2022-09-06T06:19:07.981Z,992.62
2022-09-06T06:20:07.964Z,992.62
2022-09-06T06:21:07.950Z,992.62
2022-09-06T06:22:07.962Z,992.57
2022-09-06T06:23:07.948Z,992.53
2022-09-06T06:24:07.920Z,992.53
2022-09-06T06:25:07.932Z,992.50
2022-09-06T06:26:07.931Z,992.48
2022-09-06T06:27:07.950Z,992.53
2022-09-06T06:28:07.882Z,992.57
2022-09-06T06:29:07.906Z,992.63
2022-09-06T06:30:07.892Z,992.60
2022-09-06T06:31:07.919Z,992.63
2022-09-06T06:32:07.922Z,992.64
2022-09-06T06:33:07.932Z,992.69
2022-09-06T06:34:07.832Z,992.78
2022-09-06T06:35:07.822Z,992.74
2022-09-06T06:36:07.815Z,992.77
2022-09-06T06:37:07.810Z,992.75
2022-09-06T06:38:07.784Z,992.73
2022-09-06T06:39:07.809Z,992.77
2022-09-06T06:40:07.817Z,992.72
2022-09-06T06:41:07.741Z,992.67
2022-09-06T06:42:07.743Z,992.62
2022-09-06T06:43:07.783Z,992.62
2022-09-06T06:44:07.794Z,992.58
2022-09-06T06:45:07.714Z,992.54
2022-09-06T06:46:07.828Z,992.55
2022-09-06T06:47:07.713Z,992.59
2022-09-06T06:48:07.965Z,992.56
2022-09-06T06:49:07.683Z,992.53
2022-09-06T06:50:07.693Z,992.49
2022-09-06T06:51:08.376Z,992.50
2022-09-06T06:52:07.641Z,992.47
2022-09-06T06:53:07.638Z,992.46
2022-09-06T06:54:07.654Z,992.47
2022-09-06T06:55:07.621Z,992.48
2022-09-06T06:56:07.604Z,992.51
2022-09-06T06:57:07.592Z,992.49
2022-09-06T06:58:07.600Z,992.46
2022-09-06T06:59:07.657Z,992.45
2022-09-06T07:00:07.566Z,992.41
2022-09-06T07:01:07.670Z,992.45
2022-09-06T07:02:07.747Z,992.43
2022-09-06T07:03:07.521Z,992.41
2022-09-06T07:04:07.532Z,992.45
2022-09-06T07:08:08.486Z,992.51
2022-09-06T07:09:07.475Z,992.56
2022-09-06T07:11:08.455Z,992.66
2022-09-06T07:12:07.424Z,992.66
2022-09-06T07:13:07.456Z,992.62
2022-09-06T07:14:07.603Z,992.62
2022-09-06T07:15:07.432Z,992.54
2022-09-06T07:16:07.485Z,992.52
2022-09-06T07:17:09.252Z,992.58
2022-09-06T07:18:07.395Z,992.48
2022-09-06T07:19:07.712Z,992.41
2022-09-06T07:20:15.142Z,992.35
2022-09-06T07:22:10.529Z,992.36
2022-09-06T07:24:09.239Z,992.33
2022-09-06T07:25:07.362Z,992.36
2022-09-06T07:26:07.274Z,992.37
2022-09-06T07:28:08.260Z,992.44
2022-09-06T07:29:07.277Z,992.43
2022-09-06T07:30:07.255Z,992.52
2022-09-06T07:31:07.736Z,992.54
2022-09-06T07:33:07.247Z,992.61
2022-09-06T07:34:07.217Z,992.65
2022-09-06T07:35:07.227Z,992.65
2022-09-06T07:36:07.196Z,992.70
2022-09-06T07:37:07.176Z,992.75
2022-09-06T07:38:07.167Z,992.66
2022-09-06T07:39:07.227Z,992.69
2022-09-06T07:40:07.229Z,992.68
2022-09-06T07:41:07.144Z,992.70
2022-09-06T07:42:07.116Z,992.61
2022-09-06T07:43:07.108Z,992.58
2022-09-06T07:44:07.086Z,992.59
2022-09-06T07:45:07.095Z,992.66
2022-09-06T07:46:07.726Z,992.65
2022-09-06T07:48:08.055Z,992.73
2022-09-06T07:49:07.058Z,992.73
2022-09-06T07:51:08.066Z,992.75
2022-09-06T07:53:10.805Z,992.80
2022-09-06T07:54:29.281Z,992.71
2022-09-06T07:55:07.988Z,992.73
2022-09-06T07:56:06.987Z,992.75
2022-09-06T07:57:06.978Z,992.75
2022-09-06T07:58:06.945Z,992.80
2022-09-06T07:59:07.605Z,992.74
2022-09-06T08:00:06.936Z,992.75
2022-09-06T08:01:07.107Z,992.79
2022-09-06T08:02:06.958Z,992.72
2022-09-06T08:03:06.906Z,992.74
2022-09-06T08:04:06.921Z,992.75
2022-09-06T08:09:04.593Z,992.71
2022-09-06T08:10:03.577Z,992.66
2022-09-06T08:11:03.546Z,992.64
2022-09-06T08:12:03.543Z,992.65
2022-09-06T08:13:03.534Z,992.63
2022-09-06T08:14:03.513Z,992.60
2022-09-06T08:15:03.512Z,992.64
2022-09-06T08:16:04.474Z,992.68
2022-09-06T08:17:04.024Z,992.67
2022-09-06T08:18:03.472Z,992.63
2022-09-06T08:19:03.463Z,992.66
2022-09-06T08:20:03.475Z,992.66
2022-09-06T08:21:03.444Z,992.68
2022-09-06T08:22:03.463Z,992.69
2022-09-06T08:23:03.463Z,992.70
2022-09-06T08:24:03.411Z,992.74
2022-09-06T08:25:03.420Z,992.76
2022-09-06T08:26:03.475Z,992.73
2022-09-06T08:27:03.387Z,992.69
2022-09-06T08:28:03.384Z,992.64
2022-09-06T08:29:03.364Z,992.65
2022-09-06T08:30:03.342Z,992.73
2022-09-06T08:31:03.344Z,992.70
2022-09-06T08:32:03.390Z,992.71
2022-09-06T08:33:03.392Z,992.75
2022-09-06T08:34:03.316Z,992.76
2022-09-06T08:35:03.304Z,992.77
2022-09-06T08:36:03.295Z,992.77
2022-09-06T08:37:03.285Z,992.81
2022-09-06T08:38:03.465Z,992.81
2022-09-06T08:39:03.254Z,992.85
2022-09-06T08:40:03.315Z,992.82
2022-09-06T08:41:03.234Z,992.82
2022-09-06T08:42:03.247Z,992.82
2022-09-06T08:43:03.213Z,992.79
2022-09-06T08:45:04.279Z,992.80
2022-09-06T08:46:03.216Z,992.84
2022-09-06T08:47:04.278Z,992.77
2022-09-06T08:48:03.221Z,992.74
2022-09-06T08:49:03.486Z,992.70
2022-09-06T08:50:03.237Z,992.69
2022-09-06T08:51:03.147Z,992.68
2022-09-06T08:52:03.137Z,992.67
2022-09-06T08:53:18.545Z,992.65
2022-09-06T08:54:04.144Z,992.63
2022-09-06T08:55:03.105Z,992.62
2022-09-06T08:56:03.135Z,992.60
2022-09-06T08:57:03.078Z,992.65
2022-09-06T08:58:03.083Z,992.58
2022-09-06T08:59:03.076Z,992.56
2022-09-06T09:00:03.515Z,992.57
2022-09-06T09:01:03.108Z,992.51
2022-09-06T09:02:03.044Z,992.54
2022-09-06T09:03:03.027Z,992.43
2022-09-06T09:04:03.038Z,992.46
2022-09-06T09:05:03.027Z,992.40
2022-09-06T09:06:03.008Z,992.45
2022-09-06T09:07:04.186Z,992.42
2022-09-06T09:08:02.997Z,992.43
2022-09-06T09:09:02.976Z,992.38
2022-09-06T09:10:02.997Z,992.42
2022-09-06T09:11:02.955Z,992.37
2022-09-06T09:12:02.935Z,992.42
2022-09-06T09:13:03.583Z,992.36
2022-09-06T09:14:02.905Z,992.36
2022-09-06T09:15:02.985Z,992.41
2022-09-06T09:16:02.927Z,992.37
2022-09-06T09:17:02.917Z,992.38
2022-09-06T09:18:02.865Z,992.36
2022-09-06T09:19:02.867Z,992.30
2022-09-06T09:20:02.868Z,992.34
2022-09-06T09:21:02.847Z,992.34
2022-09-06T09:22:02.837Z,992.35
2022-09-06T09:23:02.826Z,992.35
2022-09-06T09:24:02.827Z,992.34
2022-09-06T09:25:02.809Z,992.34
2022-09-06T09:26:03.856Z,992.41
2022-09-06T09:27:02.793Z,992.38
2022-09-06T09:28:02.765Z,992.36
2022-09-06T09:29:02.759Z,992.33
2022-09-06T09:31:04.670Z,992.25
2022-09-06T09:32:02.787Z,992.24
2022-09-06T09:33:02.716Z,992.25
2022-09-06T09:34:02.706Z,992.23
2022-09-06T09:35:02.728Z,992.21
2022-09-06T09:36:02.977Z,992.22
2022-09-06T09:38:08.028Z,992.24
2022-09-06T09:39:03.660Z,992.20
2022-09-06T09:40:02.734Z,992.18
2022-09-06T09:41:02.695Z,992.15
2022-09-06T09:42:02.638Z,992.15
2022-09-06T09:43:03.068Z,992.13
2022-09-06T09:44:04.993Z,992.15
2022-09-06T09:45:02.587Z,992.14
2022-09-06T09:46:02.597Z,992.08
2022-09-06T09:47:02.589Z,992.08
2022-09-06T09:48:02.557Z,992.06
2022-09-06T09:49:02.578Z,992.08
2022-09-06T09:50:02.547Z,992.05
2022-09-06T09:51:02.528Z,992.05
2022-09-06T09:52:02.519Z,992.05
2022-09-06T09:53:02.520Z,992.03
2022-09-06T09:54:02.519Z,992.04
2022-09-06T09:55:04.190Z,992.02
2022-09-06T09:56:02.488Z,992.02
2022-09-06T09:57:04.484Z,992.00
2022-09-06T09:58:02.461Z,992.05
2022-09-06T09:59:02.457Z,991.97
2022-09-06T10:00:02.437Z,991.96
2022-09-06T10:01:02.485Z,991.97
2022-09-06T10:02:02.429Z,991.94
2022-09-06T10:03:02.491Z,991.90
2022-09-06T10:05:03.424Z,991.95
2022-09-06T10:06:03.372Z,991.86
2022-09-06T10:08:02.371Z,991.80
2022-09-06T10:09:02.399Z,991.82
2022-09-06T10:10:02.350Z,991.77
2022-09-06T10:11:02.378Z,991.79
2022-09-06T10:12:02.362Z,991.77
2022-09-06T10:13:02.391Z,991.80
2022-09-06T10:14:02.339Z,991.85
2022-09-06T10:15:06.984Z,991.78
2022-09-06T10:16:02.389Z,991.80
2022-09-06T10:17:02.291Z,991.79
2022-09-06T10:18:02.258Z,991.76
2022-09-06T10:19:02.260Z,991.77
2022-09-06T10:20:02.233Z,991.76
2022-09-06T10:21:02.255Z,991.80
2022-09-06T10:22:02.219Z,991.77
2022-09-06T10:23:02.231Z,991.75
2022-09-06T10:25:04.151Z,991.75
2022-09-06T10:26:02.612Z,991.82
2022-09-06T10:27:02.159Z,991.80
2022-09-06T10:28:10.977Z,991.77
2022-09-06T10:29:03.181Z,991.77
2022-09-06T10:30:02.147Z,991.75
2022-09-06T10:31:02.214Z,991.76
2022-09-06T10:32:02.792Z,991.77
2022-09-06T10:33:02.122Z,991.74
2022-09-06T10:34:02.103Z,991.73
2022-09-06T10:35:02.092Z,991.73
2022-09-06T10:36:02.700Z,991.76
2022-09-06T10:37:02.078Z,991.75
2022-09-06T10:38:02.087Z,991.72
2022-09-06T10:39:04.087Z,991.73
2022-09-06T10:40:02.141Z,991.72
2022-09-06T10:41:02.030Z,991.70
2022-09-06T10:42:02.027Z,991.69
2022-09-06T10:43:02.001Z,991.66
2022-09-06T10:44:01.993Z,991.66
2022-09-06T10:45:02.009Z,991.65
2022-09-06T10:46:02.060Z,991.59
2022-09-06T10:47:02.174Z,991.58
2022-09-06T10:48:02.931Z,991.57
2022-09-06T10:49:01.945Z,991.48
2022-09-06T10:50:01.933Z,991.56
2022-09-06T10:51:01.932Z,991.53
2022-09-06T10:52:01.913Z,991.52
2022-09-06T10:53:01.911Z,991.55
2022-09-06T10:54:01.895Z,991.50
2022-09-06T10:55:01.891Z,991.49
2022-09-06T10:56:01.957Z,991.48
2022-09-06T10:57:01.883Z,991.50
2022-09-06T10:58:17.880Z,991.50
2022-09-06T11:00:02.833Z,991.48
2022-09-06T11:01:01.841Z,991.50
2022-09-06T11:02:01.928Z,991.48
2022-09-06T11:04:06.708Z,991.51
2022-09-06T11:06:02.774Z,991.41
2022-09-06T11:07:01.778Z,991.42
2022-09-06T11:09:03.726Z,991.39
2022-09-06T11:10:01.722Z,991.33
2022-09-06T11:11:01.743Z,991.36
2022-09-06T11:12:01.702Z,991.35
2022-09-06T11:13:02.062Z,991.38
2022-09-06T11:14:05.507Z,991.34
2022-09-06T11:15:01.673Z,991.34
2022-09-06T11:16:02.686Z,991.33
2022-09-06T11:17:02.615Z,991.33
2022-09-06T11:18:01.676Z,991.34
2022-09-06T11:19:01.655Z,991.30
2022-09-06T11:20:01.636Z,991.32
2022-09-06T11:21:01.665Z,991.26
2022-09-06T11:22:01.616Z,991.23
2022-09-06T11:23:01.605Z,991.28
2022-09-06T11:24:01.594Z,991.23
2022-09-06T11:25:02.100Z,991.22
2022-09-06T11:26:01.634Z,991.21
2022-09-06T11:27:01.553Z,991.19
2022-09-06T11:28:01.549Z,991.16
2022-09-06T11:29:01.544Z,991.18
2022-09-06T11:30:01.605Z,991.17
2022-09-06T11:31:01.609Z,991.16
2022-09-06T11:32:17.068Z,991.16
2022-09-06T11:33:02.496Z,991.16
2022-09-06T11:34:02.146Z,991.16
2022-09-06T11:35:01.495Z,991.11
2022-09-06T11:36:01.455Z,991.11
2022-09-06T11:37:01.484Z,991.15
2022-09-06T11:38:01.444Z,991.08
2022-09-06T11:39:01.424Z,991.08
2022-09-06T11:41:02.435Z,991.07
2022-09-06T11:42:01.404Z,991.12
2022-09-06T11:43:01.388Z,991.05
2022-09-06T11:44:01.386Z,991.10
2022-09-06T11:45:01.377Z,991.05
2022-09-06T11:46:01.446Z,991.08
2022-09-06T11:47:01.626Z,991.11
2022-09-06T11:48:01.354Z,991.08
2022-09-06T11:49:01.337Z,991.08
2022-09-06T11:50:01.337Z,991.08
2022-09-06T11:51:02.316Z,991.09
2022-09-06T11:52:01.332Z,991.08
2022-09-06T11:53:01.322Z,991.07
2022-09-06T11:54:01.305Z,991.09
2022-09-06T11:55:01.296Z,991.07
2022-09-06T11:56:01.427Z,991.06
2022-09-06T11:57:01.245Z,991.01
2022-09-06T11:58:01.244Z,991.00
2022-09-06T11:59:01.246Z,990.93
2022-09-06T12:00:01.238Z,990.91
2022-09-06T12:01:01.217Z,990.90
2022-09-06T12:02:01.229Z,990.84
2022-09-06T12:04:03.727Z,990.86
2022-09-06T12:05:01.264Z,990.85
2022-09-06T12:06:01.168Z,990.87
2022-09-06T12:07:01.148Z,990.82
2022-09-06T12:08:01.148Z,990.84
2022-09-06T12:09:01.148Z,990.79
2022-09-06T12:10:01.128Z,990.81
2022-09-06T12:11:01.125Z,990.85
2022-09-06T12:12:01.099Z,990.84
2022-09-06T12:13:01.090Z,990.83
2022-09-06T12:14:01.097Z,990.82
2022-09-06T12:15:01.067Z,990.79
2022-09-06T12:16:01.128Z,990.78
2022-09-06T12:17:01.089Z,990.78
2022-09-06T12:18:01.165Z,990.82
2022-09-06T12:19:01.029Z,990.83
2022-09-06T12:20:01.029Z,990.84
2022-09-06T12:21:01.009Z,990.85
2022-09-06T12:22:01.019Z,990.83
2022-09-06T12:23:01.020Z,990.74
2022-09-06T12:24:00.979Z,990.78
2022-09-06T12:25:00.980Z,990.66
2022-09-06T12:26:01.027Z,990.69
2022-09-06T12:27:00.947Z,990.71
2022-09-06T12:28:00.958Z,990.67
2022-09-06T12:29:00.929Z,990.65
2022-09-06T12:30:00.950Z,990.65
2022-09-06T12:31:00.976Z,990.61
2022-09-06T12:32:00.910Z,990.64
2022-09-06T12:33:00.892Z,990.67
2022-09-06T12:34:02.551Z,990.63
2022-09-06T12:36:03.369Z,990.63
2022-09-06T12:37:00.887Z,990.60
2022-09-06T12:38:00.839Z,990.63
2022-09-06T12:39:00.839Z,990.63
2022-09-06T12:40:00.861Z,990.61
2022-09-06T12:41:00.813Z,990.58
2022-09-06T12:42:00.821Z,990.60
2022-09-06T12:43:00.803Z,990.59
2022-09-06T12:44:00.801Z,990.62
2022-09-06T12:45:00.783Z,990.53
2022-09-06T12:46:00.805Z,990.53
2022-09-06T12:47:00.762Z,990.57
2022-09-06T12:48:00.740Z,990.46
2022-09-06T12:49:01.012Z,990.48
2022-09-06T12:50:00.720Z,990.47
2022-09-06T12:51:00.711Z,990.48
2022-09-06T12:52:00.711Z,990.43
2022-09-06T12:53:00.703Z,990.39
2022-09-06T12:54:00.700Z,990.40
2022-09-06T12:55:00.682Z,990.38
2022-09-06T12:56:00.683Z,990.39
2022-09-06T12:57:00.653Z,990.33